createdAt,value
2019-06-20T13:41:13.876Z,67.50
2019-06-20T13:43:43.696Z,68.30
2019-06-20T13:46:12.979Z,68.20
2019-06-20T13:48:47.501Z,68.00
2019-06-20T13:51:25.893Z,67.70
2019-06-20T13:53:54.841Z,67.50
2019-06-20T13:56:23.884Z,67.10
2019-06-20T13:58:54.445Z,66.90
2019-06-20T14:01:24.145Z,66.70
2019-06-20T14:03:56.404Z,66.50
2019-06-20T14:06:26.313Z,66.40
2019-06-20T14:08:55.551Z,66.10
2019-06-20T14:11:26.142Z,65.90
2019-06-20T14:13:55.470Z,65.70
2019-06-20T14:16:31.156Z,65.70
2019-06-20T14:19:01.777Z,65.40
2019-06-20T14:21:31.348Z,65.00
2019-06-20T14:24:02.656Z,65.30
2019-06-20T14:26:31.884Z,65.30
2019-06-20T14:29:01.328Z,65.20
2019-06-20T14:31:30.231Z,65.20
2019-06-20T14:33:59.011Z,65.30
2019-06-20T14:36:34.753Z,65.50
2019-06-20T14:39:03.905Z,65.50
2019-06-20T14:41:35.700Z,65.50
2019-06-20T14:44:15.922Z,65.60
2019-06-20T14:46:46.051Z,65.70
2019-06-20T14:49:31.950Z,65.60
2019-06-20T14:52:01.464Z,65.70
2019-06-20T14:54:32.178Z,65.80
2019-06-20T14:57:18.336Z,65.80
2019-06-20T14:59:52.381Z,65.80
2019-06-20T15:02:34.597Z,66.00
2019-06-20T15:04:56.220Z,65.90
2019-06-20T15:07:34.026Z,65.80
2019-06-20T15:10:05.476Z,65.80
2019-06-20T15:12:38.338Z,65.60
2019-06-20T15:15:07.539Z,66.10
2019-06-20T15:17:36.997Z,65.90
2019-06-20T15:20:06.168Z,66.00
2019-06-20T15:22:35.393Z,66.20
2019-06-20T15:25:05.533Z,66.50
2019-06-20T15:27:34.682Z,66.60
2019-06-20T15:30:15.704Z,66.70
2019-06-20T15:33:00.950Z,67.30
2019-06-20T15:35:16.251Z,39.50
2019-06-20T15:37:51.623Z,39.80
2019-06-20T15:40:21.635Z,40.60
2019-06-20T15:43:02.384Z,40.60
2019-06-20T15:45:32.097Z,40.30
2019-06-20T15:48:02.986Z,39.60
2019-06-20T15:50:56.831Z,39.40
2019-06-20T15:53:32.659Z,38.90
2019-06-20T15:56:13.125Z,38.80
2019-06-20T16:01:45.021Z,38.70
2019-06-20T16:04:14.692Z,39.10
2019-06-20T16:06:48.602Z,38.80
2019-06-20T16:09:21.123Z,38.90
2019-06-20T16:12:02.554Z,38.80
2019-06-20T16:14:31.936Z,38.60
2019-06-20T16:17:01.283Z,39.40
2019-06-20T16:19:38.195Z,38.80
2019-06-20T16:22:13.183Z,38.60
2019-06-20T16:24:43.445Z,38.60
2019-06-20T16:27:13.958Z,39.10
2019-06-20T16:29:46.634Z,39.60
2019-06-20T16:32:16.366Z,40.00
2019-06-20T16:34:45.751Z,40.00
2019-06-20T16:37:19.807Z,40.10
2019-06-20T16:39:48.967Z,39.00
2019-06-20T16:42:18.678Z,38.30
2019-06-20T16:44:48.202Z,38.40
2019-06-20T16:47:17.500Z,38.40
2019-06-20T16:49:47.316Z,38.40
2019-06-20T16:52:17.299Z,38.40
2019-06-20T16:54:46.514Z,38.40
2019-06-20T16:57:15.843Z,38.50
2019-06-20T16:59:44.921Z,39.20
2019-06-20T17:02:18.828Z,39.40
2019-06-20T17:04:48.329Z,39.50
2019-06-20T17:07:17.747Z,39.50
2019-06-20T17:09:47.013Z,40.20
2019-06-20T17:12:16.040Z,39.80
2019-06-20T17:14:45.529Z,39.70
2019-06-20T17:17:17.824Z,39.70
2019-06-20T17:19:46.980Z,40.60
2019-06-20T17:22:16.630Z,40.50
2019-06-20T17:24:45.895Z,41.10
2019-06-20T17:27:15.009Z,41.20
2019-06-20T17:29:44.315Z,41.40
2019-06-20T17:32:13.310Z,41.60
2019-06-20T17:34:43.072Z,41.60
2019-06-20T17:37:12.580Z,41.80
2019-06-20T17:39:41.746Z,41.60
2019-06-20T17:42:12.043Z,41.10
2019-06-20T17:44:41.342Z,41.10
2019-06-20T17:47:10.833Z,41.10
2019-06-20T17:49:40.175Z,40.70
2019-06-20T17:52:09.661Z,41.00
2019-06-20T17:54:39.586Z,41.10
2019-06-20T17:57:11.879Z,40.90
2019-06-20T17:59:41.313Z,40.90
2019-06-20T18:02:10.559Z,40.70
2019-06-20T18:04:41.020Z,40.70
2019-06-20T18:07:10.405Z,40.90
2019-06-20T18:09:40.012Z,40.30
2019-06-20T18:12:10.821Z,40.60
2019-06-20T18:14:40.457Z,40.60
2019-06-20T18:17:09.942Z,40.50
2019-06-20T18:19:39.058Z,40.70
2019-06-20T18:22:10.556Z,40.70
2019-06-20T18:24:39.392Z,40.60
2019-06-20T18:27:10.560Z,40.50
2019-06-20T18:29:39.915Z,40.20
2019-06-20T18:32:10.072Z,40.10
2019-06-20T18:34:39.468Z,40.20
2019-06-20T18:37:08.890Z,40.30
2019-06-20T18:39:39.655Z,40.10
2019-06-20T18:42:08.915Z,39.80
2019-06-20T18:44:39.025Z,40.00
2019-06-20T18:47:08.145Z,39.90
2019-06-20T18:49:37.534Z,39.90
2019-06-20T18:52:06.942Z,39.90
2019-06-20T18:54:36.137Z,39.50
2019-06-20T18:57:05.531Z,39.40
2019-06-20T18:59:34.962Z,39.20
2019-06-20T19:02:04.252Z,39.00
2019-06-20T19:04:46.103Z,38.80
2019-06-20T19:07:04.114Z,38.70
2019-06-20T19:09:33.158Z,38.90
2019-06-20T19:12:05.730Z,38.90
2019-06-20T19:14:34.737Z,38.90
2019-06-20T19:17:04.119Z,39.40
2019-06-20T19:19:33.199Z,39.70
2019-06-20T19:22:02.521Z,40.00
2019-06-20T19:24:31.502Z,40.20
2019-06-20T19:27:00.745Z,40.30
2019-06-20T19:29:31.117Z,40.30
2019-06-20T19:32:00.494Z,39.90
2019-06-20T19:34:30.169Z,39.90
2019-06-20T19:36:59.175Z,39.70
2019-06-20T19:39:28.676Z,39.30
2019-06-20T19:41:58.312Z,39.00
2019-06-20T19:44:27.299Z,39.10
2019-06-20T19:46:57.099Z,39.30
2019-06-20T19:49:29.577Z,39.20
2019-06-20T19:51:58.978Z,39.10
2019-06-20T19:54:29.467Z,39.30
2019-06-20T19:56:59.016Z,39.60
2019-06-20T19:59:28.518Z,39.70
2019-06-20T20:01:57.804Z,39.70
2019-06-20T20:04:27.205Z,39.30
2019-06-20T20:06:56.733Z,39.20
2019-06-20T20:09:26.137Z,39.00
2019-06-20T20:11:55.593Z,38.70
2019-06-20T20:14:25.361Z,38.50
2019-06-20T20:16:54.975Z,38.40
2019-06-20T20:19:24.684Z,38.30
2019-06-20T20:22:07.193Z,38.90
2019-06-20T20:24:36.516Z,39.50
2019-06-20T20:27:07.864Z,39.30
2019-06-20T20:29:37.045Z,39.20
2019-06-20T20:32:09.513Z,38.80
2019-06-20T20:34:39.034Z,38.70
2019-06-20T20:37:11.935Z,38.50
2019-06-20T20:39:41.616Z,38.40
2019-06-20T20:42:10.919Z,38.30
2019-06-20T20:44:40.620Z,38.20
2019-06-20T20:47:09.935Z,38.00
2019-06-20T20:49:39.426Z,37.90
2019-06-20T20:52:25.393Z,38.10
2019-06-20T20:54:54.337Z,38.10
2019-06-20T20:57:24.027Z,38.10
2019-06-20T20:59:53.540Z,38.10
2019-06-20T21:02:23.142Z,38.10
2019-06-20T21:04:52.251Z,38.00
2019-06-20T21:07:21.964Z,37.90
2019-06-20T21:09:51.465Z,38.00
2019-06-20T21:12:27.824Z,37.80
2019-06-20T21:14:58.468Z,37.70
2019-06-20T21:23:10.393Z,37.90
2019-06-20T21:25:41.760Z,39.00
2019-06-20T21:28:11.454Z,39.20
2019-06-20T21:30:40.770Z,40.00
2019-06-20T21:33:10.776Z,41.30
2019-06-20T21:35:40.286Z,41.80
2019-06-20T21:38:10.511Z,41.70
2019-06-20T21:40:39.813Z,42.70
2019-06-20T21:43:09.425Z,43.00
2019-06-20T21:45:38.737Z,43.20
2019-06-20T21:48:08.036Z,43.70
2019-06-20T21:50:37.856Z,44.20
2019-06-20T21:53:06.948Z,45.20
2019-06-20T21:55:36.108Z,44.80
2019-06-20T21:58:05.867Z,44.60
2019-06-20T22:00:38.233Z,45.20
2019-06-20T22:03:08.946Z,45.20
2019-06-20T22:05:38.200Z,62.10
2019-06-20T22:08:07.823Z,62.20
2019-06-20T22:10:37.788Z,62.20
2019-06-20T22:13:07.876Z,61.90
2019-06-20T22:15:37.005Z,60.90
2019-06-20T22:18:09.823Z,61.60
2019-06-20T22:20:45.900Z,62.00
2019-06-20T22:23:15.663Z,61.50
2019-06-20T22:25:45.062Z,61.20
2019-06-20T22:28:14.234Z,61.10
2019-06-20T22:30:43.062Z,61.40
2019-06-20T22:33:12.410Z,61.40
2019-06-20T22:35:41.754Z,61.40
2019-06-20T22:38:10.943Z,61.20
2019-06-20T22:40:40.468Z,61.30
2019-06-20T22:43:10.760Z,61.40
2019-06-20T22:45:42.495Z,62.20
2019-06-20T22:48:10.833Z,61.40
